createdAt,value
2023-03-29T00:02:04.585Z,51.49
2023-03-29T00:04:31.688Z,51.58
2023-03-29T00:07:04.993Z,51.68
2023-03-29T00:09:33.569Z,51.66
2023-03-29T00:12:01.533Z,51.70
2023-03-29T00:14:31.139Z,51.65
2023-03-29T00:16:58.319Z,51.56
2023-03-29T00:19:25.179Z,51.90
2023-03-29T00:21:51.950Z,51.89
2023-03-29T00:24:18.827Z,51.88
2023-03-29T00:26:45.899Z,51.86
2023-03-29T00:29:12.698Z,51.79
2023-03-29T00:31:39.538Z,51.97
2023-03-29T00:34:06.432Z,51.98
2023-03-29T00:36:33.247Z,52.07
2023-03-29T00:39:00.010Z,51.99
2023-03-29T00:41:27.526Z,52.12
2023-03-29T00:44:02.059Z,52.00
2023-03-29T00:46:30.606Z,52.15
2023-03-29T00:49:13.117Z,52.08
2023-03-29T00:51:41.994Z,52.17
2023-03-29T00:54:15.403Z,52.34
2023-03-29T00:56:43.864Z,52.15
2023-03-29T00:59:13.768Z,52.15
2023-03-29T01:01:43.739Z,52.24
2023-03-29T01:04:29.706Z,52.20
2023-03-29T01:07:01.592Z,52.22
2023-03-29T01:09:30.814Z,52.16
2023-03-29T01:11:59.841Z,52.20
2023-03-29T01:14:34.234Z,52.30
2023-03-29T01:17:01.104Z,52.49
2023-03-29T01:19:32.306Z,52.47
2023-03-29T01:22:17.924Z,52.62
2023-03-29T01:24:47.928Z,52.37
2023-03-29T01:27:23.062Z,52.34
2023-03-29T01:29:54.516Z,52.46
2023-03-29T01:32:31.377Z,52.51
2023-03-29T01:35:00.889Z,52.47
2023-03-29T01:37:31.086Z,52.42
2023-03-29T01:39:57.948Z,52.38
2023-03-29T01:42:24.682Z,52.43
2023-03-29T01:44:59.439Z,52.68
2023-03-29T01:48:01.821Z,52.53
2023-03-29T01:50:34.932Z,52.69
2023-03-29T01:53:17.943Z,52.48
2023-03-29T01:55:50.967Z,52.68
2023-03-29T01:58:19.046Z,52.72
2023-03-29T02:00:46.266Z,52.64
2023-03-29T02:03:15.187Z,52.86
2023-03-29T02:05:42.890Z,52.72
2023-03-29T02:08:12.384Z,52.74
2023-03-29T02:10:39.562Z,52.64
2023-03-29T02:13:06.595Z,52.85
2023-03-29T02:15:33.796Z,52.63
2023-03-29T02:18:00.705Z,52.74
2023-03-29T02:20:39.353Z,52.63
2023-03-29T02:23:06.289Z,52.50
2023-03-29T02:25:33.198Z,52.73
2023-03-29T02:28:00.099Z,52.72
2023-03-29T02:30:30.830Z,52.67
2023-03-29T02:33:14.352Z,52.67
2023-03-29T02:35:53.698Z,52.85
2023-03-29T02:38:21.220Z,52.76
2023-03-29T02:40:48.278Z,52.68
2023-03-29T02:43:16.161Z,52.67
2023-03-29T02:45:43.813Z,52.78
2023-03-29T02:48:12.876Z,52.90
2023-03-29T02:50:41.976Z,52.83
2023-03-29T02:53:32.681Z,52.76
2023-03-29T02:56:02.607Z,52.69
2023-03-29T02:58:29.953Z,52.89
2023-03-29T03:00:57.774Z,52.68
2023-03-29T03:03:25.823Z,52.87
2023-03-29T03:05:52.871Z,52.83
2023-03-29T03:08:20.203Z,52.74
2023-03-29T03:10:47.945Z,52.61
2023-03-29T03:13:14.764Z,52.80
2023-03-29T03:15:43.325Z,52.77
2023-03-29T03:18:10.847Z,52.86
2023-03-29T03:20:37.699Z,52.83
2023-03-29T03:23:04.617Z,52.92
2023-03-29T03:25:31.964Z,52.85
2023-03-29T03:27:58.924Z,52.71
2023-03-29T03:30:25.906Z,52.84
2023-03-29T03:32:55.178Z,52.94
2023-03-29T03:35:22.169Z,52.69
2023-03-29T03:37:49.054Z,52.98
2023-03-29T03:40:16.002Z,52.75
2023-03-29T03:42:42.858Z,52.92
2023-03-29T03:45:10.961Z,52.79
2023-03-29T03:47:38.181Z,52.93
2023-03-29T03:50:05.820Z,52.78
2023-03-29T03:52:32.580Z,52.58
2023-03-29T03:54:59.424Z,52.74
2023-03-29T03:57:26.324Z,52.98
2023-03-29T03:59:53.454Z,52.77
2023-03-29T04:02:20.935Z,52.84
2023-03-29T04:04:47.999Z,52.70
2023-03-29T04:07:14.986Z,52.88
2023-03-29T04:09:41.836Z,52.70
2023-03-29T04:12:10.125Z,52.87
2023-03-29T04:14:37.332Z,52.80
2023-03-29T04:17:04.143Z,52.70
2023-03-29T04:19:31.405Z,52.92
2023-03-29T04:21:58.235Z,52.61
2023-03-29T04:24:25.494Z,52.90
2023-03-29T04:26:52.368Z,53.06
2023-03-29T04:29:19.179Z,52.60
2023-03-29T04:31:46.295Z,53.26
2023-03-29T04:34:13.162Z,52.61
2023-03-29T04:36:39.942Z,52.99
2023-03-29T04:39:08.177Z,52.87
2023-03-29T04:41:35.270Z,52.99
2023-03-29T04:44:02.897Z,52.62
2023-03-29T04:46:30.150Z,52.78
2023-03-29T04:48:57.719Z,52.51
2023-03-29T04:51:24.814Z,52.58
2023-03-29T04:53:52.173Z,52.69
2023-03-29T04:56:19.035Z,52.49
2023-03-29T04:58:45.840Z,52.34
2023-03-29T05:01:12.645Z,52.49
2023-03-29T05:03:39.785Z,52.37
2023-03-29T05:06:07.536Z,52.48
2023-03-29T05:08:41.204Z,51.85
2023-03-29T05:11:08.799Z,52.14
2023-03-29T05:13:35.889Z,51.73
2023-03-29T05:16:04.028Z,51.99
2023-03-29T05:18:31.360Z,52.48
2023-03-29T05:20:59.035Z,52.43
2023-03-29T05:23:26.666Z,52.72
2023-03-29T05:25:54.026Z,52.45
2023-03-29T05:28:21.169Z,52.86
2023-03-29T05:30:48.891Z,51.61
2023-03-29T05:33:15.760Z,51.49
2023-03-29T05:35:42.697Z,51.46
2023-03-29T05:38:09.603Z,51.62
2023-03-29T05:40:36.406Z,52.03
2023-03-29T05:43:03.349Z,52.34
2023-03-29T05:45:30.373Z,52.70
2023-03-29T05:47:58.024Z,52.66
2023-03-29T05:50:25.177Z,52.52
2023-03-29T05:52:52.004Z,52.48
2023-03-29T05:55:18.928Z,52.66
2023-03-29T05:57:45.756Z,52.25
2023-03-29T06:00:25.928Z,52.57
2023-03-29T06:02:53.039Z,52.31
2023-03-29T06:05:20.486Z,52.71
2023-03-29T06:07:49.280Z,52.49
2023-03-29T06:10:16.251Z,52.48
2023-03-29T06:12:43.114Z,52.33
2023-03-29T06:15:10.626Z,52.46
2023-03-29T06:17:37.507Z,52.57
2023-03-29T06:20:09.439Z,52.12
2023-03-29T06:22:36.474Z,52.04
2023-03-29T06:25:03.393Z,52.30
2023-03-29T06:27:30.333Z,52.27
2023-03-29T06:29:57.437Z,52.07
2023-03-29T06:32:24.423Z,52.21
2023-03-29T06:34:51.319Z,51.94
2023-03-29T06:37:18.462Z,51.81
2023-03-29T06:39:45.367Z,51.74
2023-03-29T06:42:20.496Z,51.82
2023-03-29T06:44:48.699Z,51.68
2023-03-29T06:47:16.263Z,51.68
2023-03-29T06:49:43.705Z,51.69
2023-03-29T06:52:10.543Z,51.67
2023-03-29T06:54:37.401Z,51.58
2023-03-29T06:57:08.299Z,51.77
2023-03-29T06:59:35.234Z,51.70
2023-03-29T07:02:03.168Z,51.58
2023-03-29T07:04:30.216Z,51.60
2023-03-29T07:07:03.917Z,51.55
2023-03-29T07:09:31.336Z,51.60
2023-03-29T07:12:01.782Z,51.80
2023-03-29T07:14:31.904Z,51.56
2023-03-29T07:16:59.271Z,51.85
2023-03-29T07:19:27.768Z,51.52
2023-03-29T07:21:54.897Z,51.59
2023-03-29T07:24:21.951Z,51.68
2023-03-29T07:27:00.144Z,51.62
2023-03-29T07:29:30.023Z,51.46
2023-03-29T07:31:56.984Z,51.59
2023-03-29T07:34:24.795Z,51.53
2023-03-29T07:36:52.480Z,51.58
2023-03-29T07:39:19.409Z,51.67
2023-03-29T07:41:46.369Z,51.52
2023-03-29T07:44:14.272Z,51.63
2023-03-29T07:46:43.379Z,51.57
2023-03-29T07:49:10.662Z,51.47
2023-03-29T07:51:38.537Z,51.60
2023-03-29T07:54:06.824Z,51.42
2023-03-29T07:56:33.782Z,51.46
2023-03-29T07:59:01.059Z,51.48
2023-03-29T08:01:28.070Z,51.52
2023-03-29T08:03:55.603Z,51.56
2023-03-29T08:06:22.696Z,51.54
2023-03-29T08:08:49.535Z,51.43
2023-03-29T08:11:16.476Z,51.50
2023-03-29T08:13:43.312Z,51.47
2023-03-29T08:16:10.234Z,51.50
2023-03-29T08:18:37.098Z,51.46
2023-03-29T08:21:05.474Z,51.38
2023-03-29T08:23:32.717Z,51.56
2023-03-29T08:25:59.636Z,51.44
2023-03-29T08:28:26.853Z,51.52
2023-03-29T08:30:54.050Z,51.55
2023-03-29T08:33:21.143Z,51.56
2023-03-29T08:35:48.761Z,51.64
2023-03-29T08:38:15.753Z,51.43
2023-03-29T08:40:42.985Z,51.44
2023-03-29T08:43:22.631Z,51.51
2023-03-29T08:45:55.660Z,51.48
2023-03-29T08:48:28.863Z,51.47
2023-03-29T08:51:01.297Z,51.59
2023-03-29T08:53:31.176Z,51.51
2023-03-29T08:55:59.344Z,51.53
2023-03-29T08:58:29.443Z,51.56
2023-03-29T09:01:00.685Z,51.58
2023-03-29T09:03:33.437Z,51.50
2023-03-29T09:06:03.756Z,51.66
2023-03-29T09:08:31.538Z,51.66
2023-03-29T09:10:58.416Z,51.51
2023-03-29T09:13:37.191Z,51.70
2023-03-29T09:16:19.445Z,51.53
2023-03-29T09:18:57.217Z,51.57
2023-03-29T09:21:36.056Z,51.73
2023-03-29T09:24:16.049Z,51.68
2023-03-29T09:26:52.504Z,51.57
2023-03-29T09:29:25.849Z,51.59
2023-03-29T09:31:53.851Z,51.80
2023-03-29T09:34:24.538Z,51.55
2023-03-29T09:36:57.392Z,51.68
2023-03-29T09:39:27.992Z,51.81
2023-03-29T09:42:12.312Z,51.82
2023-03-29T09:44:44.215Z,51.80
2023-03-29T09:47:30.472Z,51.80
2023-03-29T09:50:05.419Z,51.69
2023-03-29T09:52:32.451Z,51.70
2023-03-29T09:55:01.512Z,51.74
2023-03-29T09:57:29.770Z,51.69
2023-03-29T09:59:56.759Z,52.02
2023-03-29T10:02:24.084Z,51.84
2023-03-29T10:05:01.197Z,52.00
2023-03-29T10:07:35.798Z,51.88
2023-03-29T10:10:02.879Z,51.83
2023-03-29T10:12:29.807Z,51.69
2023-03-29T10:14:56.732Z,51.80
2023-03-29T10:17:25.194Z,51.85
2023-03-29T10:20:04.237Z,51.90
2023-03-29T10:22:41.203Z,51.89
2023-03-29T10:25:15.484Z,51.85
2023-03-29T10:27:44.208Z,51.83
2023-03-29T10:30:13.332Z,52.13
2023-03-29T10:32:41.449Z,51.98
2023-03-29T10:35:11.194Z,51.94
2023-03-29T10:37:45.509Z,51.79
2023-03-29T10:40:29.624Z,51.90
2023-03-29T10:43:12.807Z,52.01
2023-03-29T10:45:40.417Z,51.93
2023-03-29T10:48:08.135Z,52.03
2023-03-29T10:50:37.660Z,52.06
2023-03-29T10:53:11.303Z,52.13
2023-03-29T10:55:44.885Z,52.10
2023-03-29T10:58:17.842Z,51.96
2023-03-29T11:00:44.818Z,51.88
2023-03-29T11:03:14.345Z,51.98
2023-03-29T11:05:42.859Z,51.96
2023-03-29T11:08:12.982Z,52.09
2023-03-29T11:10:53.420Z,52.09
2023-03-29T11:13:39.449Z,51.87
2023-03-29T11:16:26.619Z,52.20
2023-03-29T11:18:53.718Z,52.98
2023-03-29T11:21:27.285Z,53.32
2023-03-29T11:24:03.498Z,53.29
2023-03-29T11:26:36.481Z,54.23
2023-03-29T11:29:13.289Z,54.36
2023-03-29T11:31:53.050Z,54.01
2023-03-29T11:34:19.951Z,54.69
2023-03-29T11:36:50.926Z,55.16
2023-03-29T11:39:31.080Z,55.00
2023-03-29T11:42:02.922Z,55.83
2023-03-29T11:44:35.560Z,55.72
2023-03-29T11:47:09.102Z,56.01
2023-03-29T11:49:42.378Z,55.99
2023-03-29T11:52:09.857Z,55.89
2023-03-29T11:54:42.039Z,55.88
2023-03-29T11:57:21.714Z,55.65
2023-03-29T12:00:00.556Z,55.84
2023-03-29T12:02:27.919Z,55.89
2023-03-29T12:04:57.707Z,55.63
2023-03-29T12:07:29.929Z,55.96
2023-03-29T12:10:00.193Z,55.43
2023-03-29T12:12:29.950Z,55.86
2023-03-29T12:15:08.135Z,55.93
2023-03-29T12:17:39.898Z,55.94
2023-03-29T12:20:11.853Z,55.79
2023-03-29T12:22:39.343Z,55.83
2023-03-29T12:25:10.222Z,55.49
2023-03-29T12:27:43.459Z,55.83
2023-03-29T12:30:20.704Z,55.64
2023-03-29T12:32:53.838Z,55.83
2023-03-29T12:35:24.154Z,56.25
2023-03-29T12:38:02.078Z,56.27
2023-03-29T12:40:40.004Z,56.26
2023-03-29T12:43:08.953Z,56.53
2023-03-29T12:45:40.569Z,56.23
2023-03-29T12:48:08.409Z,56.03
2023-03-29T12:50:37.407Z,55.51
2023-03-29T12:53:05.951Z,55.93
2023-03-29T12:55:35.004Z,55.72
2023-03-29T12:58:07.067Z,55.92
2023-03-29T13:00:44.362Z,56.05
2023-03-29T13:03:20.541Z,55.91
2023-03-29T13:05:48.648Z,56.02
2023-03-29T13:08:33.589Z,55.89
2023-03-29T13:11:00.889Z,55.58
2023-03-29T13:13:37.773Z,55.20
2023-03-29T13:16:13.828Z,55.30
2023-03-29T13:18:59.209Z,55.54
2023-03-29T13:21:29.243Z,55.49
2023-03-29T13:24:05.956Z,55.90
2023-03-29T13:26:45.166Z,55.63
2023-03-29T13:29:24.031Z,56.48
2023-03-29T13:31:53.873Z,56.04
2023-03-29T13:34:40.886Z,56.44
2023-03-29T13:37:08.348Z,56.10
2023-03-29T13:39:41.360Z,55.92
2023-03-29T13:42:11.737Z,56.03
2023-03-29T13:44:45.895Z,56.16
2023-03-29T13:47:17.349Z,56.18
2023-03-29T13:49:51.633Z,56.54
2023-03-29T13:52:25.483Z,55.83
2023-03-29T13:54:53.707Z,56.04
2023-03-29T13:57:23.128Z,56.21
2023-03-29T13:59:50.077Z,56.55
2023-03-29T14:02:22.601Z,57.36
2023-03-29T14:04:51.489Z,57.27
2023-03-29T14:07:21.736Z,57.62
2023-03-29T14:09:50.706Z,58.04
2023-03-29T14:12:18.030Z,57.74
2023-03-29T14:14:58.272Z,56.38
2023-03-29T14:17:26.133Z,56.72
2023-03-29T14:19:53.900Z,56.93
2023-03-29T14:22:21.854Z,56.82
2023-03-29T14:24:52.076Z,57.28
2023-03-29T14:27:19.688Z,57.39
2023-03-29T14:29:47.799Z,57.69
2023-03-29T14:32:17.157Z,57.28
2023-03-29T14:34:47.811Z,56.75
2023-03-29T14:37:17.929Z,57.20
2023-03-29T14:39:45.077Z,57.17
2023-03-29T14:42:17.951Z,56.84
2023-03-29T14:44:45.445Z,56.69
2023-03-29T14:47:17.468Z,57.43
2023-03-29T14:49:45.060Z,57.01
2023-03-29T14:52:14.617Z,56.88
2023-03-29T14:54:46.774Z,56.53
2023-03-29T14:57:15.712Z,56.32
2023-03-29T14:59:43.253Z,55.89
2023-03-29T15:02:23.507Z,56.04
2023-03-29T15:04:58.274Z,56.25
2023-03-29T15:07:28.707Z,56.25
2023-03-29T15:09:56.671Z,55.87
2023-03-29T15:12:23.911Z,55.52
2023-03-29T15:14:52.243Z,55.61
2023-03-29T15:17:22.182Z,55.39
2023-03-29T15:19:52.304Z,55.67
2023-03-29T15:22:19.193Z,55.68
2023-03-29T15:24:48.509Z,56.19
2023-03-29T15:27:20.069Z,56.78
2023-03-29T15:29:47.796Z,57.23
2023-03-29T15:32:25.095Z,57.32
2023-03-29T15:34:59.588Z,57.62
2023-03-29T15:37:26.703Z,57.59
2023-03-29T15:39:53.634Z,57.59
2023-03-29T15:42:21.463Z,57.66
2023-03-29T15:44:48.425Z,57.57
2023-03-29T15:47:15.409Z,57.31
2023-03-29T15:49:42.401Z,57.31
2023-03-29T15:52:09.229Z,57.51
2023-03-29T15:54:37.570Z,57.45
2023-03-29T15:57:09.162Z,57.30
2023-03-29T15:59:37.050Z,57.25
2023-03-29T16:02:04.736Z,57.08
2023-03-29T16:04:32.229Z,56.35
2023-03-29T16:06:59.253Z,56.92
2023-03-29T16:09:27.750Z,56.87
2023-03-29T16:11:54.853Z,56.57
2023-03-29T16:14:27.456Z,56.87
2023-03-29T16:17:01.018Z,56.78
2023-03-29T16:19:29.108Z,57.13
2023-03-29T16:21:56.133Z,56.99
2023-03-29T16:24:24.591Z,56.78
2023-03-29T16:26:54.773Z,56.81
2023-03-29T16:29:23.035Z,56.83
2023-03-29T16:31:50.945Z,56.73
2023-03-29T16:34:19.483Z,56.73
2023-03-29T16:36:47.922Z,56.19
2023-03-29T16:39:15.633Z,56.21
2023-03-29T16:41:43.139Z,55.68
2023-03-29T16:44:16.381Z,55.72
2023-03-29T16:46:44.117Z,55.78
2023-03-29T16:49:18.481Z,56.74
2023-03-29T16:51:48.780Z,56.45
2023-03-29T16:54:16.374Z,56.98
2023-03-29T16:56:43.331Z,56.54
2023-03-29T16:59:10.401Z,57.01
2023-03-29T17:01:37.484Z,56.37
2023-03-29T17:04:04.845Z,56.63
2023-03-29T17:06:33.057Z,56.47
2023-03-29T17:09:01.165Z,56.19
2023-03-29T17:11:28.962Z,56.22
2023-03-29T17:13:56.224Z,56.69
2023-03-29T17:16:23.533Z,56.44
2023-03-29T17:18:50.557Z,57.00
2023-03-29T17:21:17.930Z,57.36
2023-03-29T17:23:44.906Z,56.70
2023-03-29T17:26:12.534Z,55.90
2023-03-29T17:28:39.651Z,56.45
2023-03-29T17:31:09.896Z,56.64
2023-03-29T17:33:36.924Z,56.83
2023-03-29T17:36:05.357Z,56.72
2023-03-29T17:38:34.443Z,56.63
2023-03-29T17:41:01.924Z,56.29
2023-03-29T17:43:28.908Z,55.97
2023-03-29T17:45:55.998Z,56.09
2023-03-29T17:48:23.728Z,55.93
2023-03-29T17:50:51.374Z,55.91
2023-03-29T17:53:18.238Z,55.78
2023-03-29T17:55:45.176Z,56.01
2023-03-29T17:58:12.330Z,55.83
2023-03-29T18:00:39.394Z,55.84
2023-03-29T18:03:06.389Z,55.96
2023-03-29T18:05:34.546Z,55.78
2023-03-29T18:08:01.691Z,56.13
2023-03-29T18:10:29.090Z,55.83
2023-03-29T18:12:56.420Z,56.26
2023-03-29T18:15:23.576Z,56.05
2023-03-29T18:17:50.842Z,55.56
2023-03-29T18:20:18.323Z,55.97
2023-03-29T18:22:45.397Z,56.14
2023-03-29T18:25:12.436Z,56.39
2023-03-29T18:27:39.934Z,55.95
2023-03-29T18:30:09.172Z,55.94
2023-03-29T18:32:36.920Z,56.45
2023-03-29T18:35:03.925Z,56.52
2023-03-29T18:37:31.425Z,56.54
2023-03-29T18:39:58.434Z,56.64
2023-03-29T18:42:25.686Z,56.35
2023-03-29T18:44:52.675Z,56.61
2023-03-29T18:47:19.837Z,55.87
2023-03-29T18:49:47.705Z,56.12
2023-03-29T18:52:14.827Z,56.33
2023-03-29T18:54:42.363Z,55.96
2023-03-29T18:57:09.429Z,55.54
2023-03-29T18:59:37.151Z,55.62
2023-03-29T19:02:04.817Z,55.21
2023-03-29T19:04:33.671Z,55.45
2023-03-29T19:07:01.889Z,56.05
2023-03-29T19:10:12.747Z,55.67
2023-03-29T19:12:40.052Z,55.68
2023-03-29T19:15:11.155Z,55.75
2023-03-29T19:17:38.367Z,56.17
2023-03-29T19:20:12.537Z,57.14
2023-03-29T19:22:39.842Z,56.97
2023-03-29T19:25:08.672Z,55.71
2023-03-29T19:27:35.863Z,56.33
2023-03-29T19:30:03.291Z,55.99
2023-03-29T19:32:32.452Z,55.71
2023-03-29T19:35:01.421Z,55.90
2023-03-29T19:37:29.467Z,55.83
2023-03-29T19:39:57.507Z,55.86
2023-03-29T19:42:26.363Z,55.22
2023-03-29T19:44:53.557Z,54.69
2023-03-29T19:47:20.668Z,54.69
2023-03-29T19:49:49.635Z,54.95
2023-03-29T19:52:16.992Z,54.94
2023-03-29T19:54:47.793Z,55.08
2023-03-29T19:57:15.572Z,54.92
2023-03-29T19:59:43.724Z,56.83
2023-03-29T20:02:14.611Z,55.79
2023-03-29T20:04:41.719Z,55.74
2023-03-29T20:07:09.113Z,55.46
2023-03-29T20:09:40.020Z,56.38
2023-03-29T20:12:07.689Z,55.26
2023-03-29T20:14:35.313Z,55.39
2023-03-29T20:17:02.971Z,55.31
2023-03-29T20:19:30.640Z,54.93
2023-03-29T20:21:58.221Z,54.01
2023-03-29T20:24:25.855Z,54.16
2023-03-29T20:26:57.668Z,54.34
2023-03-29T20:29:24.899Z,53.95
2023-03-29T20:31:52.238Z,53.45
2023-03-29T20:34:19.597Z,53.22
2023-03-29T20:36:49.315Z,53.44
2023-03-29T20:39:19.358Z,52.92
2023-03-29T20:41:48.361Z,53.06
2023-03-29T20:44:18.968Z,52.92
2023-03-29T20:47:03.139Z,52.97
2023-03-29T20:49:30.819Z,53.13
2023-03-29T20:52:00.754Z,52.94
2023-03-29T20:54:27.746Z,53.37
2023-03-29T20:56:55.577Z,53.08
2023-03-29T20:59:23.387Z,53.03
2023-03-29T21:01:50.776Z,52.86
2023-03-29T21:04:18.177Z,52.96
2023-03-29T21:06:46.147Z,52.69
2023-03-29T21:09:14.056Z,52.67
2023-03-29T21:11:41.376Z,52.94
2023-03-29T21:14:09.648Z,52.97
2023-03-29T21:16:36.749Z,52.67
2023-03-29T21:19:03.858Z,53.02
2023-03-29T21:21:34.085Z,53.09
2023-03-29T21:24:02.034Z,52.72
2023-03-29T21:26:30.322Z,52.63
2023-03-29T21:28:57.403Z,52.91
2023-03-29T21:31:24.508Z,52.88
2023-03-29T21:33:52.001Z,52.91
2023-03-29T21:36:20.208Z,52.87
2023-03-29T21:38:47.288Z,53.21
2023-03-29T21:41:15.083Z,52.94
2023-03-29T21:43:42.697Z,52.70
2023-03-29T21:46:09.916Z,53.12
2023-03-29T21:48:37.172Z,52.65
2023-03-29T21:51:05.586Z,53.35
2023-03-29T21:53:32.860Z,52.89
2023-03-29T21:56:00.290Z,52.80
2023-03-29T21:58:27.880Z,53.37
2023-03-29T22:00:55.397Z,53.59
2023-03-29T22:03:22.270Z,53.75
2023-03-29T22:06:09.965Z,53.64
2023-03-29T22:08:41.310Z,53.96
2023-03-29T22:11:10.274Z,53.80
2023-03-29T22:13:37.702Z,53.30
2023-03-29T22:16:08.623Z,52.97
2023-03-29T22:18:43.205Z,52.53
2023-03-29T22:21:11.329Z,53.00
2023-03-29T22:23:38.214Z,52.77
2023-03-29T22:26:07.317Z,53.15
2023-03-29T22:28:35.709Z,53.36
2023-03-29T22:31:04.530Z,53.34
2023-03-29T22:33:32.312Z,53.60
2023-03-29T22:35:59.688Z,53.52
2023-03-29T22:38:26.911Z,53.66
2023-03-29T22:40:54.057Z,53.68
2023-03-29T22:43:21.826Z,54.06
2023-03-29T22:45:49.756Z,54.40
2023-03-29T22:48:16.906Z,54.16
2023-03-29T22:50:46.286Z,54.04
2023-03-29T22:53:13.415Z,53.80
2023-03-29T22:55:40.690Z,53.75
2023-03-29T22:58:07.757Z,53.87
2023-03-29T23:00:34.848Z,53.85
2023-03-29T23:03:01.909Z,54.01
2023-03-29T23:05:28.836Z,54.14
2023-03-29T23:07:56.287Z,54.29
2023-03-29T23:10:29.016Z,54.30
2023-03-29T23:13:08.822Z,54.17
2023-03-29T23:15:39.837Z,54.24
2023-03-29T23:18:06.798Z,54.28
2023-03-29T23:20:33.644Z,54.45
2023-03-29T23:23:00.575Z,54.67
2023-03-29T23:25:27.898Z,54.46
2023-03-29T23:27:54.902Z,54.54
2023-03-29T23:30:22.049Z,54.55
2023-03-29T23:32:49.870Z,54.67
2023-03-29T23:35:17.056Z,54.70
2023-03-29T23:37:43.914Z,54.81
2023-03-29T23:40:14.389Z,54.80
2023-03-29T23:42:45.600Z,54.95
2023-03-29T23:45:14.530Z,54.95
2023-03-29T23:47:42.789Z,55.04
2023-03-29T23:50:10.176Z,55.16
2023-03-29T23:52:37.546Z,55.09
2023-03-29T23:55:04.965Z,55.10
2023-03-29T23:57:34.455Z,55.25
